sensor_id;sensor_type;location;lat;lon;timestamp;pressure;altitude;pressure_sealevel;temperature;humidity
61528;BME280;47395;42.032;-8.634;2022-12-11T00:01:53;100292.63;;;12.35;70.81
61528;BME280;47395;42.032;-8.634;2022-12-11T00:03:54;100296.97;;;12.36;70.94
61528;BME280;47395;42.032;-8.634;2022-12-11T00:05:54;100293.00;;;12.44;71.07
61528;BME280;47395;42.032;-8.634;2022-12-11T00:07:55;100280.94;;;12.39;71.07
61528;BME280;47395;42.032;-8.634;2022-12-11T00:09:56;100280.06;;;12.39;70.96
61528;BME280;47395;42.032;-8.634;2022-12-11T00:11:57;100280.16;;;12.37;71.26
61528;BME280;47395;42.032;-8.634;2022-12-11T00:13:58;100272.25;;;12.37;71.06
61528;BME280;47395;42.032;-8.634;2022-12-11T00:15:59;100267.91;;;12.36;70.63
61528;BME280;47395;42.032;-8.634;2022-12-11T00:18:00;100260.19;;;12.33;70.77
61528;BME280;47395;42.032;-8.634;2022-12-11T00:20:01;100257.06;;;12.26;70.79
61528;BME280;47395;42.032;-8.634;2022-12-11T00:22:01;100245.38;;;12.31;70.86
61528;BME280;47395;42.032;-8.634;2022-12-11T00:24:02;100241.72;;;12.19;70.33
61528;BME280;47395;42.032;-8.634;2022-12-11T00:26:12;100235.31;;;12.23;70.50
61528;BME280;47395;42.032;-8.634;2022-12-11T00:28:15;100233.16;;;12.15;69.74
61528;BME280;47395;42.032;-8.634;2022-12-11T00:30:18;100220.25;;;12.10;69.54
61528;BME280;47395;42.032;-8.634;2022-12-11T00:32:19;100224.03;;;12.06;69.46
61528;BME280;47395;42.032;-8.634;2022-12-11T00:34:20;100214.50;;;11.89;69.08
61528;BME280;47395;42.032;-8.634;2022-12-11T00:36:23;100213.75;;;11.87;68.16
61528;BME280;47395;42.032;-8.634;2022-12-11T00:38:25;100213.00;;;11.85;67.93
61528;BME280;47395;42.032;-8.634;2022-12-11T00:40:26;100208.94;;;11.79;67.75
61528;BME280;47395;42.032;-8.634;2022-12-11T00:42:27;100200.56;;;11.87;68.66
61528;BME280;47395;42.032;-8.634;2022-12-11T00:44:28;100196.66;;;11.93;68.12
61528;BME280;47395;42.032;-8.634;2022-12-11T00:46:28;100200.44;;;11.88;68.15
61528;BME280;47395;42.032;-8.634;2022-12-11T00:48:29;100197.72;;;11.90;68.32
61528;BME280;47395;42.032;-8.634;2022-12-11T00:50:30;100194.63;;;11.98;68.38
61528;BME280;47395;42.032;-8.634;2022-12-11T00:52:31;100206.75;;;12.00;68.45
61528;BME280;47395;42.032;-8.634;2022-12-11T00:54:32;100198.63;;;12.04;68.55
61528;BME280;47395;42.032;-8.634;2022-12-11T00:56:33;100191.50;;;12.06;68.42
61528;BME280;47395;42.032;-8.634;2022-12-11T00:58:34;100173.84;;;12.06;68.56
61528;BME280;47395;42.032;-8.634;2022-12-11T01:00:36;100164.88;;;12.09;68.38
61528;BME280;47395;42.032;-8.634;2022-12-11T01:02:38;100151.50;;;12.12;68.32
61528;BME280;47395;42.032;-8.634;2022-12-11T01:04:39;100142.94;;;11.94;68.32
61528;BME280;47395;42.032;-8.634;2022-12-11T01:06:40;100140.00;;;11.98;68.54
61528;BME280;47395;42.032;-8.634;2022-12-11T01:08:41;100128.72;;;11.96;69.21
61528;BME280;47395;42.032;-8.634;2022-12-11T01:10:42;100126.22;;;11.80;69.51
61528;BME280;47395;42.032;-8.634;2022-12-11T01:12:43;100118.06;;;11.98;69.52
61528;BME280;47395;42.032;-8.634;2022-12-11T01:14:44;100117.00;;;12.00;69.20
61528;BME280;47395;42.032;-8.634;2022-12-11T01:16:44;100106.38;;;11.87;69.79
61528;BME280;47395;42.032;-8.634;2022-12-11T01:18:45;100109.09;;;11.58;69.65
61528;BME280;47395;42.032;-8.634;2022-12-11T01:20:46;100101.09;;;11.87;70.18
61528;BME280;47395;42.032;-8.634;2022-12-11T01:22:47;100097.56;;;11.74;70.00
61528;BME280;47395;42.032;-8.634;2022-12-11T01:24:48;100096.38;;;11.65;68.37
61528;BME280;47395;42.032;-8.634;2022-12-11T01:26:49;100080.72;;;11.62;69.48
61528;BME280;47395;42.032;-8.634;2022-12-11T01:28:50;100063.50;;;11.84;69.55
61528;BME280;47395;42.032;-8.634;2022-12-11T01:30:51;100069.66;;;11.70;68.30
61528;BME280;47395;42.032;-8.634;2022-12-11T01:32:52;100060.31;;;11.79;70.03
61528;BME280;47395;42.032;-8.634;2022-12-11T01:34:53;100049.44;;;11.83;69.66
61528;BME280;47395;42.032;-8.634;2022-12-11T01:36:54;100047.47;;;11.59;69.16
61528;BME280;47395;42.032;-8.634;2022-12-11T01:38:55;100049.56;;;11.54;69.77
61528;BME280;47395;42.032;-8.634;2022-12-11T01:40:55;100037.41;;;11.52;70.34
61528;BME280;47395;42.032;-8.634;2022-12-11T01:42:56;100028.13;;;11.31;69.49
61528;BME280;47395;42.032;-8.634;2022-12-11T01:45:30;100017.00;;;11.26;70.42
61528;BME280;47395;42.032;-8.634;2022-12-11T01:47:31;100002.78;;;11.43;68.59
61528;BME280;47395;42.032;-8.634;2022-12-11T01:49:33;100003.13;;;11.09;68.09
61528;BME280;47395;42.032;-8.634;2022-12-11T01:51:38;99985.81;;;11.05;68.51
61528;BME280;47395;42.032;-8.634;2022-12-11T01:53:42;99966.41;;;11.06;68.73
61528;BME280;47395;42.032;-8.634;2022-12-11T01:55:46;99947.81;;;11.22;70.20
61528;BME280;47395;42.032;-8.634;2022-12-11T01:57:49;99940.41;;;11.15;67.90
61528;BME280;47395;42.032;-8.634;2022-12-11T01:59:50;99932.97;;;11.07;68.89
61528;BME280;47395;42.032;-8.634;2022-12-11T02:02:04;99925.78;;;11.23;69.29
61528;BME280;47395;42.032;-8.634;2022-12-11T02:04:07;99924.75;;;10.84;69.65
61528;BME280;47395;42.032;-8.634;2022-12-11T02:06:41;99932.00;;;11.22;69.52
61528;BME280;47395;42.032;-8.634;2022-12-11T02:08:42;99924.59;;;11.15;67.58
61528;BME280;47395;42.032;-8.634;2022-12-11T02:11:07;99927.78;;;11.20;69.32
61528;BME280;47395;42.032;-8.634;2022-12-11T02:13:25;99925.50;;;11.28;67.84
61528;BME280;47395;42.032;-8.634;2022-12-11T02:15:52;99922.25;;;11.10;69.91
61528;BME280;47395;42.032;-8.634;2022-12-11T02:18:16;99895.47;;;11.44;69.96
61528;BME280;47395;42.032;-8.634;2022-12-11T02:23:19;99884.53;;;11.63;69.56
61528;BME280;47395;42.032;-8.634;2022-12-11T02:25:31;99870.13;;;11.28;70.37
61528;BME280;47395;42.032;-8.634;2022-12-11T02:27:45;99856.06;;;11.28;69.53
61528;BME280;47395;42.032;-8.634;2022-12-11T02:30:00;99869.44;;;11.25;70.12
61528;BME280;47395;42.032;-8.634;2022-12-11T02:32:09;99869.78;;;11.33;70.00
61528;BME280;47395;42.032;-8.634;2022-12-11T02:34:46;99874.25;;;11.45;69.80
61528;BME280;47395;42.032;-8.634;2022-12-11T02:36:53;99868.59;;;11.78;69.62
61528;BME280;47395;42.032;-8.634;2022-12-11T02:38:57;99879.16;;;11.65;68.74
61528;BME280;47395;42.032;-8.634;2022-12-11T02:41:03;99876.09;;;11.58;69.29
61528;BME280;47395;42.032;-8.634;2022-12-11T02:43:07;99876.19;;;11.43;66.43
61528;BME280;47395;42.032;-8.634;2022-12-11T02:45:10;99868.16;;;11.45;69.12
61528;BME280;47395;42.032;-8.634;2022-12-11T02:47:14;99871.72;;;11.44;68.59
61528;BME280;47395;42.032;-8.634;2022-12-11T02:49:16;99865.53;;;11.45;68.24
61528;BME280;47395;42.032;-8.634;2022-12-11T02:51:22;99857.28;;;11.36;69.30
61528;BME280;47395;42.032;-8.634;2022-12-11T02:53:27;99872.69;;;11.15;67.91
61528;BME280;47395;42.032;-8.634;2022-12-11T02:55:30;99872.13;;;10.97;67.48
61528;BME280;47395;42.032;-8.634;2022-12-11T02:57:39;99844.59;;;10.74;68.64
61528;BME280;47395;42.032;-8.634;2022-12-11T02:59:44;99842.00;;;10.87;70.65
61528;BME280;47395;42.032;-8.634;2022-12-11T03:01:45;99809.47;;;10.88;68.75
61528;BME280;47395;42.032;-8.634;2022-12-11T03:03:47;99805.78;;;10.90;69.61
61528;BME280;47395;42.032;-8.634;2022-12-11T03:05:48;99799.66;;;10.90;70.01
61528;BME280;47395;42.032;-8.634;2022-12-11T03:07:49;99806.94;;;10.86;69.77
61528;BME280;47395;42.032;-8.634;2022-12-11T03:09:50;99797.19;;;11.01;69.63
61528;BME280;47395;42.032;-8.634;2022-12-11T03:11:51;99789.53;;;10.83;69.67
61528;BME280;47395;42.032;-8.634;2022-12-11T03:13:52;99785.16;;;10.97;70.23
61528;BME280;47395;42.032;-8.634;2022-12-11T03:16:21;99778.41;;;11.06;69.74
61528;BME280;47395;42.032;-8.634;2022-12-11T03:18:31;99783.78;;;11.04;68.93
61528;BME280;47395;42.032;-8.634;2022-12-11T03:20:44;99780.03;;;11.21;68.95
61528;BME280;47395;42.032;-8.634;2022-12-11T03:23:19;99760.09;;;11.30;69.31
61528;BME280;47395;42.032;-8.634;2022-12-11T03:25:26;99782.28;;;11.41;68.59
61528;BME280;47395;42.032;-8.634;2022-12-11T03:27:41;99750.53;;;10.89;66.54
61528;BME280;47395;42.032;-8.634;2022-12-11T03:29:59;99753.53;;;11.10;67.84
61528;BME280;47395;42.032;-8.634;2022-12-11T03:32:13;99776.03;;;10.88;67.88
61528;BME280;47395;42.032;-8.634;2022-12-11T03:34:26;99774.59;;;10.97;68.73
61528;BME280;47395;42.032;-8.634;2022-12-11T03:36:35;99762.16;;;10.99;69.70
61528;BME280;47395;42.032;-8.634;2022-12-11T03:39:10;99757.41;;;11.04;67.35
61528;BME280;47395;42.032;-8.634;2022-12-11T03:41:13;99737.09;;;11.19;69.14
61528;BME280;47395;42.032;-8.634;2022-12-11T03:43:16;99728.75;;;11.00;68.86
61528;BME280;47395;42.032;-8.634;2022-12-11T03:45:19;99729.28;;;10.92;69.26
61528;BME280;47395;42.032;-8.634;2022-12-11T03:47:23;99718.94;;;11.02;69.40
61528;BME280;47395;42.032;-8.634;2022-12-11T03:49:28;99733.88;;;10.88;68.36
61528;BME280;47395;42.032;-8.634;2022-12-11T03:51:31;99736.75;;;10.98;68.43
61528;BME280;47395;42.032;-8.634;2022-12-11T03:53:34;99737.19;;;11.05;69.80
61528;BME280;47395;42.032;-8.634;2022-12-11T03:55:37;99741.13;;;11.25;67.93
61528;BME280;47395;42.032;-8.634;2022-12-11T03:57:39;99749.63;;;11.03;68.54
61528;BME280;47395;42.032;-8.634;2022-12-11T03:59:40;99727.22;;;11.23;68.13
61528;BME280;47395;42.032;-8.634;2022-12-11T04:01:42;99744.94;;;11.34;68.26
61528;BME280;47395;42.032;-8.634;2022-12-11T04:03:43;99732.56;;;11.21;67.95
61528;BME280;47395;42.032;-8.634;2022-12-11T04:05:51;99742.16;;;11.22;68.98
61528;BME280;47395;42.032;-8.634;2022-12-11T04:07:52;99744.66;;;10.85;68.32
61528;BME280;47395;42.032;-8.634;2022-12-11T04:09:53;99735.59;;;11.02;67.72
61528;BME280;47395;42.032;-8.634;2022-12-11T04:11:54;99731.53;;;11.24;69.75
61528;BME280;47395;42.032;-8.634;2022-12-11T04:13:55;99717.91;;;11.17;69.00
61528;BME280;47395;42.032;-8.634;2022-12-11T04:16:14;99714.75;;;11.51;68.89
61528;BME280;47395;42.032;-8.634;2022-12-11T04:18:15;99720.56;;;11.69;68.52
61528;BME280;47395;42.032;-8.634;2022-12-11T04:20:34;99707.59;;;11.27;69.28
61528;BME280;47395;42.032;-8.634;2022-12-11T04:23:12;99703.34;;;11.25;68.56
61528;BME280;47395;42.032;-8.634;2022-12-11T04:25:31;99699.34;;;11.32;69.50
61528;BME280;47395;42.032;-8.634;2022-12-11T04:27:32;99698.94;;;11.51;69.40
61528;BME280;47395;42.032;-8.634;2022-12-11T04:29:48;99710.84;;;11.31;67.27
61528;BME280;47395;42.032;-8.634;2022-12-11T04:31:49;99713.47;;;11.70;68.78
61528;BME280;47395;42.032;-8.634;2022-12-11T04:33:50;99704.06;;;11.79;69.28
61528;BME280;47395;42.032;-8.634;2022-12-11T04:35:51;99701.13;;;11.70;68.21
61528;BME280;47395;42.032;-8.634;2022-12-11T04:37:51;99699.09;;;11.74;67.97
61528;BME280;47395;42.032;-8.634;2022-12-11T04:39:52;99696.56;;;11.72;68.67
61528;BME280;47395;42.032;-8.634;2022-12-11T04:41:53;99691.63;;;11.68;67.49
61528;BME280;47395;42.032;-8.634;2022-12-11T04:43:54;99685.50;;;11.80;68.59
61528;BME280;47395;42.032;-8.634;2022-12-11T04:46:08;99677.91;;;11.75;65.80
61528;BME280;47395;42.032;-8.634;2022-12-11T04:48:09;99675.31;;;12.00;68.15
61528;BME280;47395;42.032;-8.634;2022-12-11T04:50:11;99673.78;;;11.71;65.97
61528;BME280;47395;42.032;-8.634;2022-12-11T04:52:12;99673.16;;;11.68;66.81
61528;BME280;47395;42.032;-8.634;2022-12-11T04:54:13;99661.16;;;11.51;68.41
61528;BME280;47395;42.032;-8.634;2022-12-11T04:56:15;99630.69;;;11.33;66.94
61528;BME280;47395;42.032;-8.634;2022-12-11T04:58:16;99615.09;;;11.04;66.08
61528;BME280;47395;42.032;-8.634;2022-12-11T05:00:16;99610.25;;;11.11;68.11
61528;BME280;47395;42.032;-8.634;2022-12-11T05:07:11;99590.44;;;10.92;66.04
61528;BME280;47395;42.032;-8.634;2022-12-11T05:09:12;99574.09;;;11.00;67.71
61528;BME280;47395;42.032;-8.634;2022-12-11T05:11:14;99600.56;;;10.86;67.01
61528;BME280;47395;42.032;-8.634;2022-12-11T05:13:15;99587.78;;;10.92;66.43
61528;BME280;47395;42.032;-8.634;2022-12-11T05:15:16;99608.25;;;11.02;67.61
61528;BME280;47395;42.032;-8.634;2022-12-11T05:17:17;99589.38;;;11.08;68.43
61528;BME280;47395;42.032;-8.634;2022-12-11T05:19:18;99602.22;;;11.26;65.96
61528;BME280;47395;42.032;-8.634;2022-12-11T05:21:19;99608.97;;;11.30;67.72
61528;BME280;47395;42.032;-8.634;2022-12-11T05:23:19;99597.47;;;11.18;67.24
61528;BME280;47395;42.032;-8.634;2022-12-11T05:25:20;99598.63;;;11.27;67.70
61528;BME280;47395;42.032;-8.634;2022-12-11T05:27:21;99590.75;;;11.01;67.87
61528;BME280;47395;42.032;-8.634;2022-12-11T05:29:22;99606.44;;;11.28;67.91
61528;BME280;47395;42.032;-8.634;2022-12-11T05:31:25;99601.88;;;11.81;69.46
61528;BME280;47395;42.032;-8.634;2022-12-11T05:33:27;99601.97;;;11.92;68.10
61528;BME280;47395;42.032;-8.634;2022-12-11T05:35:28;99607.25;;;11.79;68.39
61528;BME280;47395;42.032;-8.634;2022-12-11T05:37:29;99607.81;;;11.71;68.79
61528;BME280;47395;42.032;-8.634;2022-12-11T05:39:30;99611.22;;;11.98;68.33
61528;BME280;47395;42.032;-8.634;2022-12-11T05:41:31;99612.47;;;12.05;68.18
61528;BME280;47395;42.032;-8.634;2022-12-11T05:43:34;99617.03;;;11.90;67.85
61528;BME280;47395;42.032;-8.634;2022-12-11T05:45:36;99622.75;;;12.21;67.94
61528;BME280;47395;42.032;-8.634;2022-12-11T05:47:36;99628.03;;;12.21;67.71
61528;BME280;47395;42.032;-8.634;2022-12-11T05:49:37;99620.66;;;11.89;68.14
61528;BME280;47395;42.032;-8.634;2022-12-11T05:51:38;99621.91;;;11.96;68.42
61528;BME280;47395;42.032;-8.634;2022-12-11T05:53:41;99612.66;;;12.02;67.87
61528;BME280;47395;42.032;-8.634;2022-12-11T05:55:42;99597.06;;;11.99;65.69
61528;BME280;47395;42.032;-8.634;2022-12-11T05:57:43;99602.84;;;12.04;65.55
61528;BME280;47395;42.032;-8.634;2022-12-11T05:59:44;99597.78;;;12.01;67.61
61528;BME280;47395;42.032;-8.634;2022-12-11T06:01:45;99594.31;;;12.00;64.74
61528;BME280;47395;42.032;-8.634;2022-12-11T06:03:46;99594.81;;;11.81;65.21
61528;BME280;47395;42.032;-8.634;2022-12-11T06:05:47;99583.09;;;11.85;64.36
61528;BME280;47395;42.032;-8.634;2022-12-11T06:07:48;99583.97;;;11.73;64.40
61528;BME280;47395;42.032;-8.634;2022-12-11T06:09:49;99584.59;;;11.77;64.72
61528;BME280;47395;42.032;-8.634;2022-12-11T06:11:50;99579.69;;;11.83;65.90
61528;BME280;47395;42.032;-8.634;2022-12-11T06:13:52;99572.91;;;11.68;64.45
61528;BME280;47395;42.032;-8.634;2022-12-11T06:15:52;99573.63;;;11.94;63.80
61528;BME280;47395;42.032;-8.634;2022-12-11T06:17:53;99583.88;;;11.74;63.95
61528;BME280;47395;42.032;-8.634;2022-12-11T06:19:54;99573.13;;;11.65;65.03
61528;BME280;47395;42.032;-8.634;2022-12-11T06:21:55;99569.72;;;12.00;65.59
61528;BME280;47395;42.032;-8.634;2022-12-11T06:23:59;99563.59;;;11.99;65.27
61528;BME280;47395;42.032;-8.634;2022-12-11T06:26:02;99568.03;;;11.74;66.23
61528;BME280;47395;42.032;-8.634;2022-12-11T06:28:03;99570.56;;;11.76;64.79
61528;BME280;47395;42.032;-8.634;2022-12-11T06:30:05;99573.19;;;11.52;65.47
61528;BME280;47395;42.032;-8.634;2022-12-11T06:32:06;99584.75;;;11.49;66.10
61528;BME280;47395;42.032;-8.634;2022-12-11T06:34:07;99586.03;;;11.56;66.00
61528;BME280;47395;42.032;-8.634;2022-12-11T06:36:11;99606.16;;;11.95;66.75
61528;BME280;47395;42.032;-8.634;2022-12-11T06:38:12;99599.81;;;11.97;64.47
61528;BME280;47395;42.032;-8.634;2022-12-11T06:40:13;99596.22;;;12.11;66.77
61528;BME280;47395;42.032;-8.634;2022-12-11T06:42:14;99603.78;;;12.16;65.98
61528;BME280;47395;42.032;-8.634;2022-12-11T06:44:16;99616.28;;;12.01;64.43
61528;BME280;47395;42.032;-8.634;2022-12-11T06:46:18;99614.38;;;12.03;64.76
61528;BME280;47395;42.032;-8.634;2022-12-11T06:48:19;99605.41;;;12.06;64.02
61528;BME280;47395;42.032;-8.634;2022-12-11T06:50:20;99595.81;;;11.92;66.07
61528;BME280;47395;42.032;-8.634;2022-12-11T06:52:22;99583.47;;;11.92;64.76
61528;BME280;47395;42.032;-8.634;2022-12-11T06:54:27;99585.75;;;12.10;64.79
61528;BME280;47395;42.032;-8.634;2022-12-11T06:56:27;99577.53;;;12.01;65.19
61528;BME280;47395;42.032;-8.634;2022-12-11T06:58:28;99573.63;;;11.94;66.46
61528;BME280;47395;42.032;-8.634;2022-12-11T07:00:29;99571.91;;;12.06;65.43
61528;BME280;47395;42.032;-8.634;2022-12-11T07:02:30;99559.63;;;11.94;65.41
61528;BME280;47395;42.032;-8.634;2022-12-11T07:04:31;99561.97;;;11.85;67.05
61528;BME280;47395;42.032;-8.634;2022-12-11T07:06:32;99577.63;;;12.00;65.58
61528;BME280;47395;42.032;-8.634;2022-12-11T07:08:33;99571.91;;;12.06;65.78
61528;BME280;47395;42.032;-8.634;2022-12-11T07:10:34;99571.44;;;11.64;66.27
61528;BME280;47395;42.032;-8.634;2022-12-11T07:12:35;99570.97;;;11.83;67.00
61528;BME280;47395;42.032;-8.634;2022-12-11T07:14:36;99567.47;;;11.82;68.45
61528;BME280;47395;42.032;-8.634;2022-12-11T07:16:37;99562.34;;;11.43;67.28
61528;BME280;47395;42.032;-8.634;2022-12-11T07:18:42;99585.41;;;11.53;66.72
61528;BME280;47395;42.032;-8.634;2022-12-11T07:20:43;99584.09;;;11.21;65.43
61528;BME280;47395;42.032;-8.634;2022-12-11T07:22:44;99594.44;;;11.24;68.16
61528;BME280;47395;42.032;-8.634;2022-12-11T07:24:45;99579.56;;;11.10;67.33
61528;BME280;47395;42.032;-8.634;2022-12-11T07:26:46;99578.41;;;10.88;67.69
61528;BME280;47395;42.032;-8.634;2022-12-11T07:28:47;99586.84;;;11.06;68.00
61528;BME280;47395;42.032;-8.634;2022-12-11T07:30:48;99581.91;;;10.89;69.08
61528;BME280;47395;42.032;-8.634;2022-12-11T07:32:49;99595.09;;;10.89;69.55
61528;BME280;47395;42.032;-8.634;2022-12-11T07:34:50;99601.31;;;10.88;69.30
61528;BME280;47395;42.032;-8.634;2022-12-11T07:36:50;99603.94;;;10.88;68.65
61528;BME280;47395;42.032;-8.634;2022-12-11T07:38:52;99599.81;;;10.83;67.76
61528;BME280;47395;42.032;-8.634;2022-12-11T07:40:53;99609.63;;;10.94;69.13
61528;BME280;47395;42.032;-8.634;2022-12-11T07:42:54;99611.91;;;10.60;68.81
61528;BME280;47395;42.032;-8.634;2022-12-11T07:44:55;99615.84;;;10.80;68.84
61528;BME280;47395;42.032;-8.634;2022-12-11T07:46:56;99622.38;;;10.88;69.73
61528;BME280;47395;42.032;-8.634;2022-12-11T07:48:57;99614.25;;;10.91;69.19
61528;BME280;47395;42.032;-8.634;2022-12-11T07:51:14;99621.63;;;11.25;68.08
61528;BME280;47395;42.032;-8.634;2022-12-11T07:53:17;99629.97;;;11.31;68.01
61528;BME280;47395;42.032;-8.634;2022-12-11T07:55:18;99632.06;;;11.26;67.37
61528;BME280;47395;42.032;-8.634;2022-12-11T07:57:18;99635.78;;;11.10;67.24
61528;BME280;47395;42.032;-8.634;2022-12-11T07:59:19;99634.59;;;11.28;66.93
61528;BME280;47395;42.032;-8.634;2022-12-11T08:01:22;99634.88;;;11.49;67.70
61528;BME280;47395;42.032;-8.634;2022-12-11T08:03:24;99626.25;;;11.47;67.17
61528;BME280;47395;42.032;-8.634;2022-12-11T08:05:25;99629.16;;;11.68;66.74
61528;BME280;47395;42.032;-8.634;2022-12-11T08:07:25;99626.78;;;11.90;66.74
61528;BME280;47395;42.032;-8.634;2022-12-11T08:09:26;99625.59;;;11.94;67.04
61528;BME280;47395;42.032;-8.634;2022-12-11T08:11:27;99634.00;;;11.74;67.13
61528;BME280;47395;42.032;-8.634;2022-12-11T08:13:28;99646.13;;;11.77;67.01
61528;BME280;47395;42.032;-8.634;2022-12-11T08:15:29;99654.72;;;12.05;66.04
61528;BME280;47395;42.032;-8.634;2022-12-11T08:17:30;99652.16;;;12.17;66.34
61528;BME280;47395;42.032;-8.634;2022-12-11T08:19:31;99656.06;;;12.35;64.36
61528;BME280;47395;42.032;-8.634;2022-12-11T08:21:32;99657.97;;;12.33;65.11
61528;BME280;47395;42.032;-8.634;2022-12-11T08:23:33;99668.00;;;12.41;64.95
61528;BME280;47395;42.032;-8.634;2022-12-11T08:25:34;99674.78;;;12.32;64.91
61528;BME280;47395;42.032;-8.634;2022-12-11T08:27:35;99674.09;;;12.17;65.08
61528;BME280;47395;42.032;-8.634;2022-12-11T08:29:36;99669.75;;;12.29;64.78
61528;BME280;47395;42.032;-8.634;2022-12-11T08:31:38;99665.75;;;12.59;64.73
61528;BME280;47395;42.032;-8.634;2022-12-11T08:33:39;99668.84;;;12.77;64.21
61528;BME280;47395;42.032;-8.634;2022-12-11T08:35:41;99667.72;;;12.69;63.74
61528;BME280;47395;42.032;-8.634;2022-12-11T08:37:43;99684.38;;;12.93;64.24
61528;BME280;47395;42.032;-8.634;2022-12-11T08:39:44;99685.63;;;13.12;62.07
61528;BME280;47395;42.032;-8.634;2022-12-11T08:41:46;99678.88;;;13.08;63.94
61528;BME280;47395;42.032;-8.634;2022-12-11T08:43:47;99690.09;;;13.12;63.25
61528;BME280;47395;42.032;-8.634;2022-12-11T08:45:48;99699.47;;;13.16;62.20
61528;BME280;47395;42.032;-8.634;2022-12-11T08:47:48;99703.38;;;12.99;61.48
61528;BME280;47395;42.032;-8.634;2022-12-11T08:49:49;99702.94;;;13.05;62.26
61528;BME280;47395;42.032;-8.634;2022-12-11T08:51:50;99709.13;;;12.92;62.37
61528;BME280;47395;42.032;-8.634;2022-12-11T08:53:53;99715.78;;;12.98;61.88
61528;BME280;47395;42.032;-8.634;2022-12-11T08:56:02;99718.03;;;12.91;61.45
61528;BME280;47395;42.032;-8.634;2022-12-11T08:58:03;99727.16;;;12.87;61.35
61528;BME280;47395;42.032;-8.634;2022-12-11T09:00:06;99719.94;;;12.89;61.72
61528;BME280;47395;42.032;-8.634;2022-12-11T09:02:10;99715.56;;;12.77;62.02
61528;BME280;47395;42.032;-8.634;2022-12-11T09:04:12;99708.38;;;12.79;62.32
61528;BME280;47395;42.032;-8.634;2022-12-11T09:06:16;99703.31;;;12.76;62.96
61528;BME280;47395;42.032;-8.634;2022-12-11T09:08:18;99714.84;;;12.75;62.34
61528;BME280;47395;42.032;-8.634;2022-12-11T09:10:19;99728.66;;;12.78;63.11
61528;BME280;47395;42.032;-8.634;2022-12-11T09:12:20;99724.63;;;12.86;62.85
61528;BME280;47395;42.032;-8.634;2022-12-11T09:14:21;99728.50;;;13.04;62.75
61528;BME280;47395;42.032;-8.634;2022-12-11T09:16:24;99724.09;;;13.16;62.43
61528;BME280;47395;42.032;-8.634;2022-12-11T09:18:25;99733.25;;;13.24;62.19
61528;BME280;47395;42.032;-8.634;2022-12-11T09:20:26;99735.41;;;13.30;61.49
61528;BME280;47395;42.032;-8.634;2022-12-11T09:22:27;99739.78;;;13.42;61.61
61528;BME280;47395;42.032;-8.634;2022-12-11T09:24:28;99737.66;;;13.48;61.30
61528;BME280;47395;42.032;-8.634;2022-12-11T09:26:29;99744.88;;;13.68;60.90
61528;BME280;47395;42.032;-8.634;2022-12-11T09:28:30;99752.59;;;13.83;59.94
61528;BME280;47395;42.032;-8.634;2022-12-11T09:30:32;99764.50;;;14.00;59.65
61528;BME280;47395;42.032;-8.634;2022-12-11T09:32:32;99767.25;;;14.10;59.48
61528;BME280;47395;42.032;-8.634;2022-12-11T09:34:33;99774.38;;;13.98;58.90
61528;BME280;47395;42.032;-8.634;2022-12-11T09:36:34;99769.66;;;14.02;58.87
61528;BME280;47395;42.032;-8.634;2022-12-11T09:38:37;99766.81;;;13.93;58.96
61528;BME280;47395;42.032;-8.634;2022-12-11T09:40:41;99757.66;;;13.86;58.91
61528;BME280;47395;42.032;-8.634;2022-12-11T09:42:53;99762.56;;;14.02;58.94
61528;BME280;47395;42.032;-8.634;2022-12-11T09:44:57;99761.09;;;14.21;59.12
61528;BME280;47395;42.032;-8.634;2022-12-11T09:47:00;99773.72;;;14.52;58.70
61528;BME280;47395;42.032;-8.634;2022-12-11T09:49:03;99769.13;;;14.98;57.59
61528;BME280;47395;42.032;-8.634;2022-12-11T09:51:29;99788.75;;;15.49;56.20
61528;BME280;47395;42.032;-8.634;2022-12-11T09:53:33;99792.41;;;15.79;54.75
61528;BME280;47395;42.032;-8.634;2022-12-11T09:55:45;99801.09;;;16.13;54.22
61528;BME280;47395;42.032;-8.634;2022-12-11T10:00:39;99809.78;;;16.76;52.08
61528;BME280;47395;42.032;-8.634;2022-12-11T10:03:30;99811.75;;;16.23;52.31
61528;BME280;47395;42.032;-8.634;2022-12-11T10:05:35;99829.19;;;15.84;53.30
61528;BME280;47395;42.032;-8.634;2022-12-11T10:07:54;99838.19;;;15.72;53.59
61528;BME280;47395;42.032;-8.634;2022-12-11T10:10:17;99840.53;;;15.44;54.47
61528;BME280;47395;42.032;-8.634;2022-12-11T10:12:39;99849.81;;;15.17;55.46
61528;BME280;47395;42.032;-8.634;2022-12-11T10:17:14;99857.25;;;14.90;56.09
61528;BME280;47395;42.032;-8.634;2022-12-11T10:19:21;99854.50;;;14.69;56.88
61528;BME280;47395;42.032;-8.634;2022-12-11T10:21:24;99866.06;;;14.79;57.04
61528;BME280;47395;42.032;-8.634;2022-12-11T10:23:43;99871.38;;;14.91;56.68
61528;BME280;47395;42.032;-8.634;2022-12-11T10:25:53;99879.66;;;14.97;56.66
61528;BME280;47395;42.032;-8.634;2022-12-11T10:27:56;99886.88;;;15.07;56.50
61528;BME280;47395;42.032;-8.634;2022-12-11T10:30:18;99898.78;;;15.12;55.68
61528;BME280;47395;42.032;-8.634;2022-12-11T10:32:24;99890.44;;;15.17;55.39
61528;BME280;47395;42.032;-8.634;2022-12-11T10:34:34;99895.75;;;15.17;55.36
61528;BME280;47395;42.032;-8.634;2022-12-11T10:36:40;99891.69;;;15.13;55.70
61528;BME280;47395;42.032;-8.634;2022-12-11T10:38:43;99891.53;;;15.14;56.02
61528;BME280;47395;42.032;-8.634;2022-12-11T10:40:53;99897.34;;;15.08;56.48
61528;BME280;47395;42.032;-8.634;2022-12-11T10:42:54;99892.06;;;15.08;56.62
61528;BME280;47395;42.032;-8.634;2022-12-11T10:45:00;99901.44;;;15.12;57.34
61528;BME280;47395;42.032;-8.634;2022-12-11T10:47:10;99894.81;;;15.07;57.06
61528;BME280;47395;42.032;-8.634;2022-12-11T10:49:21;99891.06;;;15.09;56.79
61528;BME280;47395;42.032;-8.634;2022-12-11T10:51:35;99909.88;;;15.06;56.73
61528;BME280;47395;42.032;-8.634;2022-12-11T10:53:37;99920.31;;;14.98;56.84
61528;BME280;47395;42.032;-8.634;2022-12-11T10:55:43;99921.50;;;14.94;57.00
61528;BME280;47395;42.032;-8.634;2022-12-11T10:57:53;99909.69;;;14.98;57.02
61528;BME280;47395;42.032;-8.634;2022-12-11T10:59:55;99896.50;;;15.08;56.73
61528;BME280;47395;42.032;-8.634;2022-12-11T11:01:56;99900.13;;;15.18;56.31